sensor_id;sensor_type;location;lat;lon;timestamp;P1;durP1;ratioP1;P2;durP2;ratioP2
23009;SDS011;11671;49.990;8.028;2023-10-31T00:02:46;1.10;;;0.57;;
23009;SDS011;11671;49.990;8.028;2023-10-31T00:07:37;1.58;;;0.60;;
23009;SDS011;11671;49.990;8.028;2023-10-31T00:12:29;2.35;;;0.68;;
23009;SDS011;11671;49.990;8.028;2023-10-31T00:17:20;0.65;;;0.30;;
23009;SDS011;11671;49.990;8.028;2023-10-31T00:22:11;3.58;;;0.95;;
23009;SDS011;11671;49.990;8.028;2023-10-31T00:27:02;2.40;;;0.75;;
23009;SDS011;11671;49.990;8.028;2023-10-31T00:31:53;2.38;;;0.88;;
23009;SDS011;11671;49.990;8.028;2023-10-31T00:36:44;1.40;;;0.50;;
23009;SDS011;11671;49.990;8.028;2023-10-31T00:41:35;1.65;;;0.40;;
23009;SDS011;11671;49.990;8.028;2023-10-31T00:46:26;0.85;;;0.45;;
23009;SDS011;11671;49.990;8.028;2023-10-31T00:51:17;2.85;;;0.70;;
23009;SDS011;11671;49.990;8.028;2023-10-31T00:56:09;6.50;;;0.70;;
23009;SDS011;11671;49.990;8.028;2023-10-31T01:01:00;3.90;;;0.52;;
23009;SDS011;11671;49.990;8.028;2023-10-31T01:05:51;2.28;;;0.95;;
23009;SDS011;11671;49.990;8.028;2023-10-31T01:10:42;1.45;;;1.35;;
23009;SDS011;11671;49.990;8.028;2023-10-31T01:15:33;2.10;;;1.65;;
23009;SDS011;11671;49.990;8.028;2023-10-31T01:20:24;2.47;;;1.42;;
23009;SDS011;11671;49.990;8.028;2023-10-31T01:25:15;2.45;;;1.67;;
23009;SDS011;11671;49.990;8.028;2023-10-31T01:30:07;2.90;;;2.67;;
23009;SDS011;11671;49.990;8.028;2023-10-31T01:34:58;3.72;;;3.30;;
23009;SDS011;11671;49.990;8.028;2023-10-31T01:39:49;6.97;;;6.63;;
23009;SDS011;11671;49.990;8.028;2023-10-31T01:44:42;6.70;;;6.32;;
23009;SDS011;11671;49.990;8.028;2023-10-31T01:49:33;6.88;;;6.53;;
23009;SDS011;11671;49.990;8.028;2023-10-31T01:52:00;3.95;;;3.75;;
23009;SDS011;11671;49.990;8.028;2023-10-31T01:54:27;5.75;;;5.35;;
23009;SDS011;11671;49.990;8.028;2023-10-31T01:59:22;8.45;;;7.82;;
23009;SDS011;11671;49.990;8.028;2023-10-31T02:01:49;6.93;;;6.55;;
23009;SDS011;11671;49.990;8.028;2023-10-31T02:06:40;8.52;;;7.82;;
23009;SDS011;11671;49.990;8.028;2023-10-31T02:11:31;9.13;;;8.70;;
23009;SDS011;11671;49.990;8.028;2023-10-31T02:16:23;15.95;;;15.02;;
23009;SDS011;11671;49.990;8.028;2023-10-31T02:21:14;16.38;;;15.45;;
23009;SDS011;11671;49.990;8.028;2023-10-31T02:23:41;6.53;;;6.18;;
23009;SDS011;11671;49.990;8.028;2023-10-31T02:28:32;7.43;;;6.93;;
23009;SDS011;11671;49.990;8.028;2023-10-31T02:33:23;10.25;;;9.68;;
23009;SDS011;11671;49.990;8.028;2023-10-31T02:38:14;7.88;;;7.30;;
23009;SDS011;11671;49.990;8.028;2023-10-31T02:43:06;6.75;;;5.57;;
23009;SDS011;11671;49.990;8.028;2023-10-31T02:47:57;7.93;;;7.50;;
23009;SDS011;11671;49.990;8.028;2023-10-31T02:50:24;5.88;;;5.47;;
23009;SDS011;11671;49.990;8.028;2023-10-31T02:55:15;6.78;;;6.15;;
23009;SDS011;11671;49.990;8.028;2023-10-31T03:00:06;10.23;;;9.55;;
23009;SDS011;11671;49.990;8.028;2023-10-31T03:04:57;6.80;;;5.28;;
23009;SDS011;11671;49.990;8.028;2023-10-31T03:09:48;7.00;;;6.30;;
23009;SDS011;11671;49.990;8.028;2023-10-31T03:14:39;7.53;;;6.93;;
23009;SDS011;11671;49.990;8.028;2023-10-31T03:19:31;8.02;;;7.47;;
23009;SDS011;11671;49.990;8.028;2023-10-31T03:21:59;7.15;;;6.75;;
23009;SDS011;11671;49.990;8.028;2023-10-31T03:26:50;8.23;;;7.75;;
23009;SDS011;11671;49.990;8.028;2023-10-31T03:31:41;7.18;;;6.60;;
23009;SDS011;11671;49.990;8.028;2023-10-31T03:36:32;6.13;;;5.68;;
23009;SDS011;11671;49.990;8.028;2023-10-31T03:41:24;8.82;;;8.05;;
23009;SDS011;11671;49.990;8.028;2023-10-31T03:46:15;7.25;;;6.85;;
23009;SDS011;11671;49.990;8.028;2023-10-31T03:51:07;6.65;;;6.25;;
23009;SDS011;11671;49.990;8.028;2023-10-31T03:56:01;7.57;;;7.22;;
23009;SDS011;11671;49.990;8.028;2023-10-31T03:58:27;5.72;;;5.43;;
23009;SDS011;11671;49.990;8.028;2023-10-31T04:03:18;4.47;;;4.18;;
23009;SDS011;11671;49.990;8.028;2023-10-31T04:08:09;3.47;;;3.28;;
23009;SDS011;11671;49.990;8.028;2023-10-31T04:10:35;5.53;;;5.13;;
23009;SDS011;11671;49.990;8.028;2023-10-31T04:15:26;7.97;;;4.22;;
23009;SDS011;11671;49.990;8.028;2023-10-31T04:20:17;3.60;;;3.25;;
23009;SDS011;11671;49.990;8.028;2023-10-31T04:25:08;10.60;;;10.10;;
23009;SDS011;11671;49.990;8.028;2023-10-31T04:29:59;8.82;;;8.30;;
23009;SDS011;11671;49.990;8.028;2023-10-31T04:32:26;7.57;;;7.20;;
23009;SDS011;11671;49.990;8.028;2023-10-31T04:37:17;8.88;;;8.48;;
23009;SDS011;11671;49.990;8.028;2023-10-31T04:42:08;6.03;;;5.60;;
23009;SDS011;11671;49.990;8.028;2023-10-31T04:46:59;5.13;;;4.72;;
23009;SDS011;11671;49.990;8.028;2023-10-31T04:51:50;4.20;;;3.88;;
23009;SDS011;11671;49.990;8.028;2023-10-31T04:56:41;2.88;;;2.67;;
23009;SDS011;11671;49.990;8.028;2023-10-31T05:01:32;2.15;;;1.95;;
23009;SDS011;11671;49.990;8.028;2023-10-31T05:06:23;3.22;;;3.03;;
23009;SDS011;11671;49.990;8.028;2023-10-31T05:11:17;4.05;;;3.60;;
23009;SDS011;11671;49.990;8.028;2023-10-31T05:13:43;2.55;;;2.33;;
23009;SDS011;11671;49.990;8.028;2023-10-31T05:16:09;3.35;;;2.35;;
23009;SDS011;11671;49.990;8.028;2023-10-31T05:18:36;3.10;;;2.80;;
23009;SDS011;11671;49.990;8.028;2023-10-31T05:23:28;3.80;;;3.50;;
23009;SDS011;11671;49.990;8.028;2023-10-31T05:28:20;4.57;;;2.70;;
23009;SDS011;11671;49.990;8.028;2023-10-31T05:33:14;2.80;;;1.88;;
23009;SDS011;11671;49.990;8.028;2023-10-31T05:35:40;3.97;;;2.63;;
23009;SDS011;11671;49.990;8.028;2023-10-31T05:40:31;3.30;;;2.65;;
23009;SDS011;11671;49.990;8.028;2023-10-31T05:43:00;6.75;;;3.97;;
23009;SDS011;11671;49.990;8.028;2023-10-31T05:45:26;4.38;;;3.85;;
23009;SDS011;11671;49.990;8.028;2023-10-31T05:50:17;5.03;;;4.40;;
23009;SDS011;11671;49.990;8.028;2023-10-31T05:55:09;4.32;;;2.67;;
23009;SDS011;11671;49.990;8.028;2023-10-31T06:00:00;3.15;;;2.95;;
23009;SDS011;11671;49.990;8.028;2023-10-31T06:04:51;3.65;;;2.25;;
23009;SDS011;11671;49.990;8.028;2023-10-31T06:09:42;4.55;;;2.83;;
23009;SDS011;11671;49.990;8.028;2023-10-31T06:14:33;3.20;;;2.90;;
23009;SDS011;11671;49.990;8.028;2023-10-31T06:19:26;5.80;;;5.45;;
23009;SDS011;11671;49.990;8.028;2023-10-31T06:24:17;5.80;;;5.18;;
23009;SDS011;11671;49.990;8.028;2023-10-31T06:29:08;5.85;;;4.30;;
23009;SDS011;11671;49.990;8.028;2023-10-31T06:33:59;3.40;;;3.15;;
23009;SDS011;11671;49.990;8.028;2023-10-31T06:38:51;3.90;;;3.60;;
23009;SDS011;11671;49.990;8.028;2023-10-31T06:43:42;4.05;;;3.75;;
23009;SDS011;11671;49.990;8.028;2023-10-31T06:48:33;4.70;;;4.40;;
23009;SDS011;11671;49.990;8.028;2023-10-31T06:53:24;5.28;;;3.67;;
23009;SDS011;11671;49.990;8.028;2023-10-31T06:58:15;6.05;;;5.53;;
23009;SDS011;11671;49.990;8.028;2023-10-31T07:03:07;4.22;;;3.83;;
23009;SDS011;11671;49.990;8.028;2023-10-31T07:05:37;4.07;;;3.70;;
23009;SDS011;11671;49.990;8.028;2023-10-31T07:08:03;4.45;;;3.50;;
23009;SDS011;11671;49.990;8.028;2023-10-31T07:10:30;4.53;;;3.25;;
23009;SDS011;11671;49.990;8.028;2023-10-31T07:15:23;2.72;;;2.50;;
23009;SDS011;11671;49.990;8.028;2023-10-31T07:20:15;2.63;;;2.00;;
23009;SDS011;11671;49.990;8.028;2023-10-31T07:25:06;4.93;;;2.35;;
23009;SDS011;11671;49.990;8.028;2023-10-31T07:27:32;3.55;;;3.25;;
23009;SDS011;11671;49.990;8.028;2023-10-31T07:32:24;3.88;;;3.50;;
23009;SDS011;11671;49.990;8.028;2023-10-31T07:34:50;5.45;;;3.80;;
23009;SDS011;11671;49.990;8.028;2023-10-31T07:39:41;2.85;;;2.60;;
23009;SDS011;11671;49.990;8.028;2023-10-31T07:44:33;5.57;;;2.70;;
23009;SDS011;11671;49.990;8.028;2023-10-31T07:49:24;3.17;;;2.97;;
23009;SDS011;11671;49.990;8.028;2023-10-31T07:54:15;2.72;;;2.17;;
23009;SDS011;11671;49.990;8.028;2023-10-31T07:59:07;1.77;;;1.67;;
23009;SDS011;11671;49.990;8.028;2023-10-31T08:03:59;3.15;;;1.42;;
23009;SDS011;11671;49.990;8.028;2023-10-31T08:08:50;3.42;;;1.30;;
23009;SDS011;11671;49.990;8.028;2023-10-31T08:13:41;7.85;;;3.47;;
23009;SDS011;11671;49.990;8.028;2023-10-31T08:18:33;2.55;;;2.05;;
23009;SDS011;11671;49.990;8.028;2023-10-31T08:20:59;2.75;;;1.98;;
23009;SDS011;11671;49.990;8.028;2023-10-31T08:25:50;5.57;;;5.18;;
23009;SDS011;11671;49.990;8.028;2023-10-31T08:30:41;4.95;;;4.65;;
23009;SDS011;11671;49.990;8.028;2023-10-31T08:35:33;5.50;;;4.82;;
23009;SDS011;11671;49.990;8.028;2023-10-31T08:40:24;6.43;;;6.03;;
23009;SDS011;11671;49.990;8.028;2023-10-31T08:45:15;6.65;;;6.18;;
23009;SDS011;11671;49.990;8.028;2023-10-31T08:50:07;13.98;;;13.30;;
23009;SDS011;11671;49.990;8.028;2023-10-31T08:52:36;10.35;;;9.82;;
23009;SDS011;11671;49.990;8.028;2023-10-31T08:55:02;8.18;;;5.90;;
23009;SDS011;11671;49.990;8.028;2023-10-31T08:57:28;8.20;;;7.60;;
23009;SDS011;11671;49.990;8.028;2023-10-31T09:02:20;7.43;;;6.70;;
23009;SDS011;11671;49.990;8.028;2023-10-31T09:07:11;5.15;;;4.68;;
23009;SDS011;11671;49.990;8.028;2023-10-31T09:12:02;7.50;;;7.05;;
23009;SDS011;11671;49.990;8.028;2023-10-31T09:16:53;10.93;;;10.38;;
23009;SDS011;11671;49.990;8.028;2023-10-31T09:21:44;11.20;;;10.57;;
23009;SDS011;11671;49.990;8.028;2023-10-31T09:26:36;9.25;;;8.75;;
23009;SDS011;11671;49.990;8.028;2023-10-31T09:29:02;9.60;;;8.80;;
23009;SDS011;11671;49.990;8.028;2023-10-31T09:31:28;10.68;;;9.65;;
23009;SDS011;11671;49.990;8.028;2023-10-31T09:36:19;13.95;;;13.20;;
23009;SDS011;11671;49.990;8.028;2023-10-31T09:41:12;8.20;;;7.45;;
23009;SDS011;11671;49.990;8.028;2023-10-31T09:43:38;6.75;;;6.28;;
23009;SDS011;11671;49.990;8.028;2023-10-31T09:48:30;8.07;;;7.45;;
23009;SDS011;11671;49.990;8.028;2023-10-31T09:50:56;8.75;;;8.10;;
23009;SDS011;11671;49.990;8.028;2023-10-31T09:53:23;13.88;;;12.80;;
23009;SDS011;11671;49.990;8.028;2023-10-31T09:55:49;3.80;;;3.38;;
23009;SDS011;11671;49.990;8.028;2023-10-31T09:58:16;6.38;;;5.95;;
23009;SDS011;11671;49.990;8.028;2023-10-31T10:03:08;6.38;;;5.97;;
23009;SDS011;11671;49.990;8.028;2023-10-31T10:05:37;6.32;;;3.60;;
23009;SDS011;11671;49.990;8.028;2023-10-31T10:08:06;4.57;;;3.78;;
23009;SDS011;11671;49.990;8.028;2023-10-31T10:10:33;3.55;;;2.90;;
23009;SDS011;11671;49.990;8.028;2023-10-31T10:12:59;5.40;;;4.97;;
23009;SDS011;11671;49.990;8.028;2023-10-31T10:15:27;4.20;;;3.90;;
23009;SDS011;11671;49.990;8.028;2023-10-31T10:20:19;6.68;;;6.28;;
23009;SDS011;11671;49.990;8.028;2023-10-31T10:25:11;5.10;;;3.53;;
23009;SDS011;11671;49.990;8.028;2023-10-31T10:27:46;4.78;;;4.47;;
23009;SDS011;11671;49.990;8.028;2023-10-31T10:30:13;5.95;;;5.43;;
23009;SDS011;11671;49.990;8.028;2023-10-31T10:32:40;6.93;;;6.53;;
23009;SDS011;11671;49.990;8.028;2023-10-31T10:37:31;7.82;;;7.35;;
23009;SDS011;11671;49.990;8.028;2023-10-31T10:42:36;7.20;;;6.68;;
23009;SDS011;11671;49.990;8.028;2023-10-31T10:45:11;7.10;;;6.05;;
23009;SDS011;11671;49.990;8.028;2023-10-31T10:47:38;4.70;;;4.40;;
23009;SDS011;11671;49.990;8.028;2023-10-31T10:50:05;4.22;;;4.03;;
23009;SDS011;11671;49.990;8.028;2023-10-31T10:52:38;6.07;;;5.68;;
23009;SDS011;11671;49.990;8.028;2023-10-31T10:55:21;7.57;;;6.95;;
23009;SDS011;11671;49.990;8.028;2023-10-31T11:00:29;5.63;;;5.22;;
23009;SDS011;11671;49.990;8.028;2023-10-31T11:05:21;5.70;;;5.18;;
23009;SDS011;11671;49.990;8.028;2023-10-31T11:07:49;5.38;;;4.97;;
23009;SDS011;11671;49.990;8.028;2023-10-31T11:10:16;6.72;;;6.28;;
23009;SDS011;11671;49.990;8.028;2023-10-31T11:12:43;5.55;;;5.05;;
23009;SDS011;11671;49.990;8.028;2023-10-31T11:15:09;3.25;;;2.33;;
23009;SDS011;11671;49.990;8.028;2023-10-31T11:17:40;2.33;;;1.58;;
23009;SDS011;11671;49.990;8.028;2023-10-31T11:20:16;4.00;;;3.70;;
23009;SDS011;11671;49.990;8.028;2023-10-31T11:22:46;7.88;;;7.20;;
23009;SDS011;11671;49.990;8.028;2023-10-31T11:25:23;2.70;;;1.80;;
23009;SDS011;11671;49.990;8.028;2023-10-31T11:27:52;4.85;;;4.13;;
23009;SDS011;11671;49.990;8.028;2023-10-31T11:32:53;4.25;;;3.70;;
23009;SDS011;11671;49.990;8.028;2023-10-31T11:35:19;7.43;;;5.43;;
23009;SDS011;11671;49.990;8.028;2023-10-31T11:37:50;5.30;;;1.85;;
23009;SDS011;11671;49.990;8.028;2023-10-31T11:40:28;2.83;;;2.63;;
23009;SDS011;11671;49.990;8.028;2023-10-31T11:45:27;3.97;;;2.70;;
23009;SDS011;11671;49.990;8.028;2023-10-31T11:48:01;5.90;;;2.50;;
23009;SDS011;11671;49.990;8.028;2023-10-31T11:50:29;3.03;;;2.70;;
23009;SDS011;11671;49.990;8.028;2023-10-31T11:55:39;7.38;;;3.05;;
23009;SDS011;11671;49.990;8.028;2023-10-31T11:58:18;7.45;;;2.88;;
23009;SDS011;11671;49.990;8.028;2023-10-31T12:00:49;2.92;;;1.80;;
23009;SDS011;11671;49.990;8.028;2023-10-31T12:03:17;5.43;;;3.58;;
23009;SDS011;11671;49.990;8.028;2023-10-31T12:05:56;5.00;;;2.17;;
23009;SDS011;11671;49.990;8.028;2023-10-31T12:13:33;5.93;;;2.45;;
23009;SDS011;11671;49.990;8.028;2023-10-31T12:16:01;5.90;;;1.45;;
23009;SDS011;11671;49.990;8.028;2023-10-31T12:20:53;3.50;;;2.25;;
23009;SDS011;11671;49.990;8.028;2023-10-31T12:25:47;3.25;;;2.17;;
23009;SDS011;11671;49.990;8.028;2023-10-31T12:28:17;3.58;;;1.40;;
23009;SDS011;11671;49.990;8.028;2023-10-31T12:30:51;3.80;;;1.48;;
23009;SDS011;11671;49.990;8.028;2023-10-31T12:33:21;6.63;;;1.42;;
23009;SDS011;11671;49.990;8.028;2023-10-31T12:35:50;5.22;;;0.60;;
23009;SDS011;11671;49.990;8.028;2023-10-31T12:38:18;2.22;;;0.82;;
23009;SDS011;11671;49.990;8.028;2023-10-31T12:40:44;3.05;;;0.77;;
23009;SDS011;11671;49.990;8.028;2023-10-31T12:43:11;3.80;;;0.90;;
23009;SDS011;11671;49.990;8.028;2023-10-31T12:48:09;2.83;;;0.77;;
23009;SDS011;11671;49.990;8.028;2023-10-31T12:50:37;5.90;;;0.93;;
23009;SDS011;11671;49.990;8.028;2023-10-31T12:53:05;2.72;;;0.95;;
23009;SDS011;11671;49.990;8.028;2023-10-31T12:55:37;6.20;;;1.00;;
23009;SDS011;11671;49.990;8.028;2023-10-31T12:58:07;5.75;;;1.10;;
23009;SDS011;11671;49.990;8.028;2023-10-31T13:00:35;2.95;;;1.95;;
23009;SDS011;11671;49.990;8.028;2023-10-31T13:03:03;3.40;;;1.08;;
23009;SDS011;11671;49.990;8.028;2023-10-31T13:05:33;3.63;;;1.30;;
23009;SDS011;11671;49.990;8.028;2023-10-31T13:07:59;4.97;;;1.65;;
23009;SDS011;11671;49.990;8.028;2023-10-31T13:10:28;3.45;;;0.98;;
23009;SDS011;11671;49.990;8.028;2023-10-31T13:15:21;3.80;;;1.00;;
23009;SDS011;11671;49.990;8.028;2023-10-31T13:17:48;5.72;;;0.90;;
23009;SDS011;11671;49.990;8.028;2023-10-31T13:20:16;7.90;;;2.83;;
23009;SDS011;11671;49.990;8.028;2023-10-31T13:22:43;5.07;;;1.70;;
23009;SDS011;11671;49.990;8.028;2023-10-31T13:25:10;3.70;;;1.60;;
23009;SDS011;11671;49.990;8.028;2023-10-31T13:27:37;13.93;;;2.13;;
23009;SDS011;11671;49.990;8.028;2023-10-31T13:30:03;6.75;;;1.08;;
23009;SDS011;11671;49.990;8.028;2023-10-31T13:32:30;3.35;;;1.27;;
23009;SDS011;11671;49.990;8.028;2023-10-31T13:37:21;5.07;;;1.65;;
23009;SDS011;11671;49.990;8.028;2023-10-31T13:42:12;3.00;;;1.30;;
23009;SDS011;11671;49.990;8.028;2023-10-31T13:44:41;10.52;;;1.35;;
23009;SDS011;11671;49.990;8.028;2023-10-31T13:49:33;4.63;;;0.95;;
23009;SDS011;11671;49.990;8.028;2023-10-31T13:54:24;2.95;;;1.00;;
23009;SDS011;11671;49.990;8.028;2023-10-31T13:59:15;2.40;;;0.90;;
23009;SDS011;11671;49.990;8.028;2023-10-31T14:04:07;4.38;;;1.10;;
23009;SDS011;11671;49.990;8.028;2023-10-31T14:06:33;3.00;;;1.30;;
23009;SDS011;11671;49.990;8.028;2023-10-31T14:11:25;1.90;;;1.03;;
23009;SDS011;11671;49.990;8.028;2023-10-31T14:16:17;4.63;;;2.30;;
23009;SDS011;11671;49.990;8.028;2023-10-31T14:18:43;4.05;;;2.40;;
23009;SDS011;11671;49.990;8.028;2023-10-31T14:21:11;3.90;;;2.40;;
23009;SDS011;11671;49.990;8.028;2023-10-31T14:26:02;10.00;;;5.68;;
23009;SDS011;11671;49.990;8.028;2023-10-31T14:30:53;5.85;;;5.50;;
23009;SDS011;11671;49.990;8.028;2023-10-31T14:35:44;4.28;;;3.97;;
23009;SDS011;11671;49.990;8.028;2023-10-31T14:40:35;4.00;;;2.83;;
23009;SDS011;11671;49.990;8.028;2023-10-31T14:45:26;5.82;;;2.92;;
23009;SDS011;11671;49.990;8.028;2023-10-31T14:50:18;5.85;;;4.70;;
23009;SDS011;11671;49.990;8.028;2023-10-31T14:52:46;3.30;;;2.22;;
23009;SDS011;11671;49.990;8.028;2023-10-31T14:55:12;3.67;;;1.85;;
23009;SDS011;11671;49.990;8.028;2023-10-31T14:57:38;3.28;;;2.13;;
23009;SDS011;11671;49.990;8.028;2023-10-31T15:02:31;3.03;;;2.70;;
23009;SDS011;11671;49.990;8.028;2023-10-31T15:04:59;5.70;;;2.45;;
23009;SDS011;11671;49.990;8.028;2023-10-31T15:09:50;3.00;;;2.70;;
23009;SDS011;11671;49.990;8.028;2023-10-31T15:14:42;4.05;;;3.08;;
23009;SDS011;11671;49.990;8.028;2023-10-31T15:19:33;4.63;;;3.95;;
23009;SDS011;11671;49.990;8.028;2023-10-31T15:24:25;4.43;;;2.50;;
23009;SDS011;11671;49.990;8.028;2023-10-31T15:29:16;12.70;;;4.60;;
23009;SDS011;11671;49.990;8.028;2023-10-31T15:34:08;9.02;;;2.85;;
23009;SDS011;11671;49.990;8.028;2023-10-31T15:38:59;10.90;;;2.75;;
23009;SDS011;11671;49.990;8.028;2023-10-31T15:43:50;11.52;;;4.80;;
23009;SDS011;11671;49.990;8.028;2023-10-31T15:46:17;7.95;;;5.15;;
23009;SDS011;11671;49.990;8.028;2023-10-31T15:51:08;4.85;;;4.03;;
23009;SDS011;11671;49.990;8.028;2023-10-31T15:56:00;9.15;;;8.40;;
23009;SDS011;11671;49.990;8.028;2023-10-31T15:58:26;7.50;;;7.00;;
23009;SDS011;11671;49.990;8.028;2023-10-31T16:03:17;13.43;;;12.38;;
23009;SDS011;11671;49.990;8.028;2023-10-31T16:08:09;16.02;;;14.80;;
23009;SDS011;11671;49.990;8.028;2023-10-31T16:13:00;15.43;;;14.30;;
23009;SDS011;11671;49.990;8.028;2023-10-31T16:17:51;10.63;;;9.82;;
23009;SDS011;11671;49.990;8.028;2023-10-31T16:22:42;19.02;;;17.67;;
23009;SDS011;11671;49.990;8.028;2023-10-31T16:27:34;10.73;;;9.90;;
23009;SDS011;11671;49.990;8.028;2023-10-31T16:30:00;10.63;;;9.43;;
23009;SDS011;11671;49.990;8.028;2023-10-31T16:34:51;10.95;;;9.93;;
23009;SDS011;11671;49.990;8.028;2023-10-31T16:37:18;9.25;;;8.68;;
23009;SDS011;11671;49.990;8.028;2023-10-31T16:42:09;9.63;;;8.48;;
23009;SDS011;11671;49.990;8.028;2023-10-31T16:47:00;14.43;;;12.73;;
23009;SDS011;11671;49.990;8.028;2023-10-31T16:51:51;10.30;;;9.45;;
23009;SDS011;11671;49.990;8.028;2023-10-31T16:56:43;9.27;;;8.40;;
23009;SDS011;11671;49.990;8.028;2023-10-31T17:01:34;24.15;;;22.95;;
23009;SDS011;11671;49.990;8.028;2023-10-31T17:06:25;36.05;;;34.20;;
23009;SDS011;11671;49.990;8.028;2023-10-31T17:08:52;34.33;;;32.42;;
23009;SDS011;11671;49.990;8.028;2023-10-31T17:13:43;44.50;;;41.95;;
23009;SDS011;11671;49.990;8.028;2023-10-31T17:18:34;35.67;;;33.90;;
23009;SDS011;11671;49.990;8.028;2023-10-31T17:21:00;36.65;;;34.88;;
23009;SDS011;11671;49.990;8.028;2023-10-31T17:25:51;21.08;;;19.70;;
23009;SDS011;11671;49.990;8.028;2023-10-31T17:28:18;21.98;;;20.60;;
23009;SDS011;11671;49.990;8.028;2023-10-31T17:33:13;21.58;;;19.88;;
23009;SDS011;11671;49.990;8.028;2023-10-31T17:35:38;24.15;;;22.55;;
23009;SDS011;11671;49.990;8.028;2023-10-31T17:40:30;20.77;;;19.52;;
23009;SDS011;11671;49.990;8.028;2023-10-31T17:45:21;26.75;;;25.33;;
23009;SDS011;11671;49.990;8.028;2023-10-31T17:47:49;22.33;;;20.45;;
23009;SDS011;11671;49.990;8.028;2023-10-31T17:50:16;25.88;;;24.05;;
23009;SDS011;11671;49.990;8.028;2023-10-31T17:55:07;24.15;;;22.35;;
23009;SDS011;11671;49.990;8.028;2023-10-31T18:00:00;30.00;;;28.02;;
23009;SDS011;11671;49.990;8.028;2023-10-31T18:02:27;26.33;;;24.88;;
23009;SDS011;11671;49.990;8.028;2023-10-31T18:07:18;27.20;;;25.08;;
23009;SDS011;11671;49.990;8.028;2023-10-31T18:12:09;32.15;;;30.05;;
23009;SDS011;11671;49.990;8.028;2023-10-31T18:14:37;27.58;;;26.10;;
23009;SDS011;11671;49.990;8.028;2023-10-31T18:19:28;39.38;;;37.22;;
23009;SDS011;11671;49.990;8.028;2023-10-31T18:24:19;49.63;;;47.15;;
23009;SDS011;11671;49.990;8.028;2023-10-31T18:29:10;62.50;;;59.55;;
23009;SDS011;11671;49.990;8.028;2023-10-31T18:34:02;70.95;;;67.70;;
23009;SDS011;11671;49.990;8.028;2023-10-31T18:36:28;56.55;;;54.00;;
23009;SDS011;11671;49.990;8.028;2023-10-31T18:38:56;64.38;;;61.53;;
23009;SDS011;11671;49.990;8.028;2023-10-31T18:41:22;66.80;;;63.60;;
23009;SDS011;11671;49.990;8.028;2023-10-31T18:46:13;62.92;;;59.78;;
23009;SDS011;11671;49.990;8.028;2023-10-31T18:51:07;90.95;;;86.55;;
23009;SDS011;11671;49.990;8.028;2023-10-31T18:53:34;80.25;;;76.38;;
23009;SDS011;11671;49.990;8.028;2023-10-31T18:58:25;81.00;;;77.32;;
23009;SDS011;11671;49.990;8.028;2023-10-31T19:03:17;77.03;;;72.68;;
23009;SDS011;11671;49.990;8.028;2023-10-31T19:08:08;83.57;;;79.53;;
23009;SDS011;11671;49.990;8.028;2023-10-31T19:13:00;122.97;;;117.07;;
23009;SDS011;11671;49.990;8.028;2023-10-31T19:17:53;119.03;;;113.28;;
23009;SDS011;11671;49.990;8.028;2023-10-31T19:20:20;103.78;;;98.97;;
23009;SDS011;11671;49.990;8.028;2023-10-31T19:25:11;185.23;;;176.63;;
23009;SDS011;11671;49.990;8.028;2023-10-31T19:30:02;196.65;;;187.30;;
23009;SDS011;11671;49.990;8.028;2023-10-31T19:32:28;211.13;;;201.32;;
23009;SDS011;11671;49.990;8.028;2023-10-31T19:37:20;212.68;;;202.40;;
23009;SDS011;11671;49.990;8.028;2023-10-31T19:42:11;238.95;;;228.02;;
23009;SDS011;11671;49.990;8.028;2023-10-31T19:47:05;224.55;;;214.43;;
23009;SDS011;11671;49.990;8.028;2023-10-31T19:51:56;243.02;;;232.10;;
23009;SDS011;11671;49.990;8.028;2023-10-31T19:56:48;380.40;;;362.60;;
23009;SDS011;11671;49.990;8.028;2023-10-31T20:01:39;352.45;;;335.67;;
23009;SDS011;11671;49.990;8.028;2023-10-31T20:06:31;300.05;;;285.85;;
23009;SDS011;11671;49.990;8.028;2023-10-31T20:08:57;269.25;;;256.95;;
23009;SDS011;11671;49.990;8.028;2023-10-31T20:13:49;278.95;;;266.40;;
23009;SDS011;11671;49.990;8.028;2023-10-31T20:18:42;263.02;;;251.02;;
23009;SDS011;11671;49.990;8.028;2023-10-31T20:23:33;281.98;;;268.98;;
23009;SDS011;11671;49.990;8.028;2023-10-31T20:28:24;295.88;;;282.38;;
23009;SDS011;11671;49.990;8.028;2023-10-31T20:30:51;246.98;;;235.95;;
23009;SDS011;11671;49.990;8.028;2023-10-31T20:33:18;278.20;;;265.42;;
23009;SDS011;11671;49.990;8.028;2023-10-31T20:38:09;341.20;;;324.77;;
23009;SDS011;11671;49.990;8.028;2023-10-31T20:43:01;312.97;;;298.73;;
23009;SDS011;11671;49.990;8.028;2023-10-31T20:47:52;330.85;;;315.63;;
23009;SDS011;11671;49.990;8.028;2023-10-31T20:52:44;299.10;;;285.30;;
23009;SDS011;11671;49.990;8.028;2023-10-31T20:57:35;330.35;;;315.00;;
23009;SDS011;11671;49.990;8.028;2023-10-31T21:02:27;324.35;;;309.40;;
23009;SDS011;11671;49.990;8.028;2023-10-31T21:07:20;329.98;;;314.50;;
23009;SDS011;11671;49.990;8.028;2023-10-31T21:12:11;291.58;;;278.05;;
23009;SDS011;11671;49.990;8.028;2023-10-31T21:17:03;297.20;;;283.60;;
23009;SDS011;11671;49.990;8.028;2023-10-31T21:21:58;296.10;;;282.50;;
23009;SDS011;11671;49.990;8.028;2023-10-31T21:24:26;271.60;;;259.10;;
23009;SDS011;11671;49.990;8.028;2023-10-31T21:26:52;270.60;;;257.92;;
23009;SDS011;11671;49.990;8.028;2023-10-31T21:31:43;250.32;;;238.77;;
23009;SDS011;11671;49.990;8.028;2023-10-31T21:36:34;247.27;;;235.98;;
23009;SDS011;11671;49.990;8.028;2023-10-31T21:41:25;265.40;;;253.18;;
23009;SDS011;11671;49.990;8.028;2023-10-31T21:46:17;284.13;;;271.02;;
23009;SDS011;11671;49.990;8.028;2023-10-31T21:51:08;280.23;;;267.17;;
23009;SDS011;11671;49.990;8.028;2023-10-31T21:55:59;271.67;;;259.08;;
23009;SDS011;11671;49.990;8.028;2023-10-31T22:00:50;289.52;;;275.73;;
23009;SDS011;11671;49.990;8.028;2023-10-31T22:05:42;286.33;;;273.17;;
23009;SDS011;11671;49.990;8.028;2023-10-31T22:10:33;270.42;;;257.88;;
23009;SDS011;11671;49.990;8.028;2023-10-31T22:15:24;270.33;;;257.83;;
23009;SDS011;11671;49.990;8.028;2023-10-31T22:20:16;276.98;;;264.08;;
23009;SDS011;11671;49.990;8.028;2023-10-31T22:22:43;263.98;;;251.80;;
23009;SDS011;11671;49.990;8.028;2023-10-31T22:27:34;297.33;;;283.27;;
23009;SDS011;11671;49.990;8.028;2023-10-31T22:30:02;275.10;;;262.38;;
23009;SDS011;11671;49.990;8.028;2023-10-31T22:32:30;292.50;;;278.67;;
23009;SDS011;11671;49.990;8.028;2023-10-31T22:37:23;285.20;;;272.25;;
23009;SDS011;11671;49.990;8.028;2023-10-31T22:39:51;263.90;;;251.77;;
23009;SDS011;11671;49.990;8.028;2023-10-31T22:42:17;252.45;;;240.73;;
23009;SDS011;11671;49.990;8.028;2023-10-31T22:47:08;246.02;;;234.30;;
23009;SDS011;11671;49.990;8.028;2023-10-31T22:51:59;272.45;;;259.65;;
23009;SDS011;11671;49.990;8.028;2023-10-31T22:56:51;295.70;;;281.77;;
23009;SDS011;11671;49.990;8.028;2023-10-31T23:01:42;306.50;;;292.42;;
23009;SDS011;11671;49.990;8.028;2023-10-31T23:06:33;330.17;;;314.52;;
23009;SDS011;11671;49.990;8.028;2023-10-31T23:08:59;351.63;;;334.83;;
23009;SDS011;11671;49.990;8.028;2023-10-31T23:13:50;343.92;;;327.30;;
23009;SDS011;11671;49.990;8.028;2023-10-31T23:18:41;333.80;;;317.77;;
23009;SDS011;11671;49.990;8.028;2023-10-31T23:23:34;336.83;;;320.85;;
23009;SDS011;11671;49.990;8.028;2023-10-31T23:28:26;339.98;;;323.83;;
23009;SDS011;11671;49.990;8.028;2023-10-31T23:33:17;354.92;;;337.95;;
23009;SDS011;11671;49.990;8.028;2023-10-31T23:38:09;337.20;;;321.20;;
23009;SDS011;11671;49.990;8.028;2023-10-31T23:43:00;327.13;;;311.60;;
23009;SDS011;11671;49.990;8.028;2023-10-31T23:47:51;344.15;;;327.98;;
23009;SDS011;11671;49.990;8.028;2023-10-31T23:52:42;299.05;;;285.35;;
23009;SDS011;11671;49.990;8.028;2023-10-31T23:57:33;305.45;;;291.48;;
